sensor_id;sensor_type;location;lat;lon;timestamp;pressure;altitude;pressure_sealevel;temperature
70050;BMP180;57391;51.306;22.680;2023-07-31T00:01:04;99138.00;;;19.40
70050;BMP180;57391;51.306;22.680;2023-07-31T00:03:31;99135.20;;;19.40
70050;BMP180;57391;51.306;22.680;2023-07-31T00:05:58;99129.40;;;19.40
70050;BMP180;57391;51.306;22.680;2023-07-31T00:08:25;99130.40;;;19.40
70050;BMP180;57391;51.306;22.680;2023-07-31T00:10:52;99129.20;;;19.40
70050;BMP180;57391;51.306;22.680;2023-07-31T00:13:19;99124.40;;;19.40
70050;BMP180;57391;51.306;22.680;2023-07-31T00:15:46;99121.40;;;19.34
70050;BMP180;57391;51.306;22.680;2023-07-31T00:18:13;99121.80;;;19.34
70050;BMP180;57391;51.306;22.680;2023-07-31T00:20:40;99118.60;;;19.34
70050;BMP180;57391;51.306;22.680;2023-07-31T00:23:07;99123.20;;;19.34
70050;BMP180;57391;51.306;22.680;2023-07-31T00:25:34;99121.60;;;19.30
70050;BMP180;57391;51.306;22.680;2023-07-31T00:28:01;99118.80;;;19.30
70050;BMP180;57391;51.306;22.680;2023-07-31T00:30:28;99121.20;;;19.30
70050;BMP180;57391;51.306;22.680;2023-07-31T00:32:54;99126.60;;;19.30
70050;BMP180;57391;51.306;22.680;2023-07-31T00:35:21;99128.60;;;19.30
70050;BMP180;57391;51.306;22.680;2023-07-31T00:37:48;99128.40;;;19.30
70050;BMP180;57391;51.306;22.680;2023-07-31T00:40:15;99127.00;;;19.30
70050;BMP180;57391;51.306;22.680;2023-07-31T00:42:42;99127.00;;;19.30
70050;BMP180;57391;51.306;22.680;2023-07-31T00:45:09;99128.40;;;19.30
70050;BMP180;57391;51.306;22.680;2023-07-31T00:47:36;99136.00;;;19.30
70050;BMP180;57391;51.306;22.680;2023-07-31T00:50:04;99130.80;;;19.30
70050;BMP180;57391;51.306;22.680;2023-07-31T00:52:32;99129.00;;;19.30
70050;BMP180;57391;51.306;22.680;2023-07-31T00:54:59;99129.20;;;19.30
70050;BMP180;57391;51.306;22.680;2023-07-31T00:57:26;99128.40;;;19.30
70050;BMP180;57391;51.306;22.680;2023-07-31T00:59:53;99129.20;;;19.26
70050;BMP180;57391;51.306;22.680;2023-07-31T01:02:20;99129.80;;;19.24
70050;BMP180;57391;51.306;22.680;2023-07-31T01:04:47;99130.60;;;19.26
70050;BMP180;57391;51.306;22.680;2023-07-31T01:07:27;99128.80;;;19.22
70050;BMP180;57391;51.306;22.680;2023-07-31T01:10:10;99125.00;;;19.20
70050;BMP180;57391;51.306;22.680;2023-07-31T01:12:38;99120.60;;;19.26
70050;BMP180;57391;51.306;22.680;2023-07-31T01:15:09;99125.00;;;19.28
70050;BMP180;57391;51.306;22.680;2023-07-31T01:17:38;99129.00;;;19.30
70050;BMP180;57391;51.306;22.680;2023-07-31T01:20:17;99126.20;;;19.30
70050;BMP180;57391;51.306;22.680;2023-07-31T01:22:58;99128.60;;;19.30
70050;BMP180;57391;51.306;22.680;2023-07-31T01:25:52;99125.00;;;19.30
70050;BMP180;57391;51.306;22.680;2023-07-31T01:28:50;99122.40;;;19.30
70050;BMP180;57391;51.306;22.680;2023-07-31T01:31:23;99124.20;;;19.30
70050;BMP180;57391;51.306;22.680;2023-07-31T01:34:00;99129.60;;;19.30
70050;BMP180;57391;51.306;22.680;2023-07-31T01:36:28;99130.00;;;19.30
70050;BMP180;57391;51.306;22.680;2023-07-31T01:39:00;99133.00;;;19.30
70050;BMP180;57391;51.306;22.680;2023-07-31T01:41:28;99138.80;;;19.30
70050;BMP180;57391;51.306;22.680;2023-07-31T01:43:55;99143.00;;;19.30
70050;BMP180;57391;51.306;22.680;2023-07-31T01:46:21;99142.80;;;19.30
70050;BMP180;57391;51.306;22.680;2023-07-31T01:48:48;99146.40;;;19.20
70050;BMP180;57391;51.306;22.680;2023-07-31T01:51:15;99143.60;;;19.20
70050;BMP180;57391;51.306;22.680;2023-07-31T01:53:42;99145.80;;;19.20
70050;BMP180;57391;51.306;22.680;2023-07-31T01:56:09;99149.40;;;19.20
70050;BMP180;57391;51.306;22.680;2023-07-31T01:58:36;99151.00;;;19.20
70050;BMP180;57391;51.306;22.680;2023-07-31T02:01:03;99147.60;;;19.20
70050;BMP180;57391;51.306;22.680;2023-07-31T02:03:30;99153.60;;;19.18
70050;BMP180;57391;51.306;22.680;2023-07-31T02:05:56;99152.60;;;19.14
70050;BMP180;57391;51.306;22.680;2023-07-31T02:08:25;99153.40;;;19.18
70050;BMP180;57391;51.306;22.680;2023-07-31T02:10:52;99150.20;;;19.14
70050;BMP180;57391;51.306;22.680;2023-07-31T02:13:19;99156.80;;;19.14
70050;BMP180;57391;51.306;22.680;2023-07-31T02:15:45;99159.20;;;19.14
70050;BMP180;57391;51.306;22.680;2023-07-31T02:18:13;99156.20;;;19.12
70050;BMP180;57391;51.306;22.680;2023-07-31T02:20:39;99155.40;;;19.20
70050;BMP180;57391;51.306;22.680;2023-07-31T02:23:06;99155.20;;;19.20
70050;BMP180;57391;51.306;22.680;2023-07-31T02:25:33;99152.60;;;19.20
70050;BMP180;57391;51.306;22.680;2023-07-31T02:28:00;99153.00;;;19.20
70050;BMP180;57391;51.306;22.680;2023-07-31T02:30:26;99153.80;;;19.20
70050;BMP180;57391;51.306;22.680;2023-07-31T02:32:54;99156.40;;;19.20
70050;BMP180;57391;51.306;22.680;2023-07-31T02:35:21;99152.20;;;19.20
70050;BMP180;57391;51.306;22.680;2023-07-31T02:37:47;99148.20;;;19.20
70050;BMP180;57391;51.306;22.680;2023-07-31T02:40:14;99159.60;;;19.20
70050;BMP180;57391;51.306;22.680;2023-07-31T02:42:41;99157.20;;;19.20
70050;BMP180;57391;51.306;22.680;2023-07-31T02:45:08;99164.00;;;19.20
70050;BMP180;57391;51.306;22.680;2023-07-31T02:47:35;99165.00;;;19.20
70050;BMP180;57391;51.306;22.680;2023-07-31T02:50:06;99160.80;;;19.18
70050;BMP180;57391;51.306;22.680;2023-07-31T02:52:33;99158.00;;;19.10
70050;BMP180;57391;51.306;22.680;2023-07-31T02:55:00;99148.60;;;19.10
70050;BMP180;57391;51.306;22.680;2023-07-31T02:57:26;99149.40;;;19.10
70050;BMP180;57391;51.306;22.680;2023-07-31T02:59:53;99152.60;;;19.10
70050;BMP180;57391;51.306;22.680;2023-07-31T03:02:20;99154.60;;;19.10
70050;BMP180;57391;51.306;22.680;2023-07-31T03:04:47;99156.40;;;19.10
70050;BMP180;57391;51.306;22.680;2023-07-31T03:07:15;99151.80;;;19.10
70050;BMP180;57391;51.306;22.680;2023-07-31T03:09:41;99158.60;;;19.14
70050;BMP180;57391;51.306;22.680;2023-07-31T03:12:08;99154.40;;;19.18
70050;BMP180;57391;51.306;22.680;2023-07-31T03:14:36;99152.00;;;19.20
70050;BMP180;57391;51.306;22.680;2023-07-31T03:17:03;99155.00;;;19.20
70050;BMP180;57391;51.306;22.680;2023-07-31T03:19:32;99159.80;;;19.20
70050;BMP180;57391;51.306;22.680;2023-07-31T03:21:59;99160.80;;;19.20
70050;BMP180;57391;51.306;22.680;2023-07-31T03:24:26;99168.80;;;19.20
70050;BMP180;57391;51.306;22.680;2023-07-31T03:26:54;99170.40;;;19.16
70050;BMP180;57391;51.306;22.680;2023-07-31T03:29:22;99169.80;;;19.10
70050;BMP180;57391;51.306;22.680;2023-07-31T03:31:49;99169.00;;;19.14
70050;BMP180;57391;51.306;22.680;2023-07-31T03:34:17;99163.00;;;19.10
70050;BMP180;57391;51.306;22.680;2023-07-31T03:36:44;99158.60;;;19.16
70050;BMP180;57391;51.306;22.680;2023-07-31T03:39:11;99153.60;;;19.20
70050;BMP180;57391;51.306;22.680;2023-07-31T03:41:38;99150.00;;;19.20
70050;BMP180;57391;51.306;22.680;2023-07-31T03:44:04;99153.20;;;19.20
70050;BMP180;57391;51.306;22.680;2023-07-31T03:46:31;99160.80;;;19.20
70050;BMP180;57391;51.306;22.680;2023-07-31T03:48:59;99163.40;;;19.20
70050;BMP180;57391;51.306;22.680;2023-07-31T03:51:25;99166.00;;;19.20
70050;BMP180;57391;51.306;22.680;2023-07-31T03:53:52;99168.60;;;19.24
70050;BMP180;57391;51.306;22.680;2023-07-31T03:56:19;99166.80;;;19.22
70050;BMP180;57391;51.306;22.680;2023-07-31T03:58:46;99171.00;;;19.24
70050;BMP180;57391;51.306;22.680;2023-07-31T04:01:13;99175.20;;;19.20
70050;BMP180;57391;51.306;22.680;2023-07-31T04:03:39;99180.40;;;19.20
70050;BMP180;57391;51.306;22.680;2023-07-31T04:06:06;99185.80;;;19.20
70050;BMP180;57391;51.306;22.680;2023-07-31T04:08:34;99189.20;;;19.20
70050;BMP180;57391;51.306;22.680;2023-07-31T04:11:01;99188.80;;;19.30
70050;BMP180;57391;51.306;22.680;2023-07-31T04:13:29;99191.20;;;19.30
70050;BMP180;57391;51.306;22.680;2023-07-31T04:15:56;99190.00;;;19.30
70050;BMP180;57391;51.306;22.680;2023-07-31T04:18:25;99190.00;;;19.30
70050;BMP180;57391;51.306;22.680;2023-07-31T04:20:52;99188.40;;;19.30
70050;BMP180;57391;51.306;22.680;2023-07-31T04:23:19;99192.60;;;19.32
70050;BMP180;57391;51.306;22.680;2023-07-31T04:25:46;99192.60;;;19.40
70050;BMP180;57391;51.306;22.680;2023-07-31T04:28:12;99194.80;;;19.40
70050;BMP180;57391;51.306;22.680;2023-07-31T04:30:39;99196.20;;;19.40
70050;BMP180;57391;51.306;22.680;2023-07-31T04:33:06;99200.80;;;19.40
70050;BMP180;57391;51.306;22.680;2023-07-31T04:35:33;99198.80;;;19.40
70050;BMP180;57391;51.306;22.680;2023-07-31T04:38:00;99197.20;;;19.40
70050;BMP180;57391;51.306;22.680;2023-07-31T04:43:36;99204.40;;;19.50
70050;BMP180;57391;51.306;22.680;2023-07-31T04:46:08;99198.80;;;19.50
70050;BMP180;57391;51.306;22.680;2023-07-31T04:48:35;99203.40;;;19.60
70050;BMP180;57391;51.306;22.680;2023-07-31T04:51:02;99200.20;;;19.60
70050;BMP180;57391;51.306;22.680;2023-07-31T04:53:32;99200.20;;;19.62
70050;BMP180;57391;51.306;22.680;2023-07-31T04:55:59;99198.00;;;19.70
70050;BMP180;57391;51.306;22.680;2023-07-31T04:58:26;99200.40;;;19.70
70050;BMP180;57391;51.306;22.680;2023-07-31T05:00:58;99199.00;;;19.80
70050;BMP180;57391;51.306;22.680;2023-07-31T05:03:54;99200.80;;;19.80
70050;BMP180;57391;51.306;22.680;2023-07-31T05:06:24;99196.40;;;19.86
70050;BMP180;57391;51.306;22.680;2023-07-31T05:08:58;99193.60;;;19.90
70050;BMP180;57391;51.306;22.680;2023-07-31T05:21:23;99204.60;;;20.28
70050;BMP180;57391;51.306;22.680;2023-07-31T05:23:55;99204.60;;;20.30
70050;BMP180;57391;51.306;22.680;2023-07-31T05:26:26;99204.60;;;20.40
70050;BMP180;57391;51.306;22.680;2023-07-31T05:28:56;99209.80;;;20.48
70050;BMP180;57391;51.306;22.680;2023-07-31T05:31:28;99209.80;;;20.50
70050;BMP180;57391;51.306;22.680;2023-07-31T05:38:54;99211.80;;;20.66
70050;BMP180;57391;51.306;22.680;2023-07-31T05:41:24;99205.60;;;20.70
70050;BMP180;57391;51.306;22.680;2023-07-31T05:43:55;99207.00;;;20.76
70050;BMP180;57391;51.306;22.680;2023-07-31T05:46:26;99211.40;;;20.80
70050;BMP180;57391;51.306;22.680;2023-07-31T05:48:56;99211.80;;;20.84
70050;BMP180;57391;51.306;22.680;2023-07-31T05:51:23;99216.20;;;20.90
70050;BMP180;57391;51.306;22.680;2023-07-31T05:53:50;99215.20;;;20.90
70050;BMP180;57391;51.306;22.680;2023-07-31T05:56:17;99218.20;;;21.00
70050;BMP180;57391;51.306;22.680;2023-07-31T05:58:47;99219.40;;;21.00
70050;BMP180;57391;51.306;22.680;2023-07-31T06:01:19;99219.80;;;21.10
70050;BMP180;57391;51.306;22.680;2023-07-31T06:03:48;99221.00;;;21.20
70050;BMP180;57391;51.306;22.680;2023-07-31T06:06:18;99219.20;;;21.20
70050;BMP180;57391;51.306;22.680;2023-07-31T06:08:45;99218.60;;;21.30
70050;BMP180;57391;51.306;22.680;2023-07-31T06:11:12;99221.20;;;21.30
70050;BMP180;57391;51.306;22.680;2023-07-31T06:13:39;99216.20;;;21.40
70050;BMP180;57391;51.306;22.680;2023-07-31T06:16:06;99219.20;;;21.50
70050;BMP180;57391;51.306;22.680;2023-07-31T06:18:33;99219.60;;;21.50
70050;BMP180;57391;51.306;22.680;2023-07-31T06:21:00;99223.00;;;21.60
70050;BMP180;57391;51.306;22.680;2023-07-31T06:23:27;99222.80;;;21.70
70050;BMP180;57391;51.306;22.680;2023-07-31T06:25:54;99220.20;;;21.70
70050;BMP180;57391;51.306;22.680;2023-07-31T06:28:21;99215.00;;;21.80
70050;BMP180;57391;51.306;22.680;2023-07-31T06:30:48;99208.80;;;21.90
70050;BMP180;57391;51.306;22.680;2023-07-31T06:33:21;99212.60;;;22.00
70050;BMP180;57391;51.306;22.680;2023-07-31T06:35:50;99217.20;;;22.10
70050;BMP180;57391;51.306;22.680;2023-07-31T06:38:26;99220.80;;;22.12
70050;BMP180;57391;51.306;22.680;2023-07-31T06:47:19;99224.00;;;22.76
70050;BMP180;57391;51.306;22.680;2023-07-31T06:49:46;99225.00;;;22.82
70050;BMP180;57391;51.306;22.680;2023-07-31T06:52:13;99223.20;;;22.96
70050;BMP180;57391;51.306;22.680;2023-07-31T06:54:40;99226.60;;;23.10
70050;BMP180;57391;51.306;22.680;2023-07-31T06:57:06;99222.60;;;23.30
70050;BMP180;57391;51.306;22.680;2023-07-31T06:59:34;99224.20;;;23.46
70050;BMP180;57391;51.306;22.680;2023-07-31T07:02:01;99222.80;;;23.64
70050;BMP180;57391;51.306;22.680;2023-07-31T07:04:28;99228.60;;;23.94
70050;BMP180;57391;51.306;22.680;2023-07-31T07:06:54;99229.80;;;24.16
70050;BMP180;57391;51.306;22.680;2023-07-31T07:09:21;99232.20;;;24.58
70050;BMP180;57391;51.306;22.680;2023-07-31T07:11:48;99230.40;;;25.18
70050;BMP180;57391;51.306;22.680;2023-07-31T07:14:15;99224.20;;;25.76
70050;BMP180;57391;51.306;22.680;2023-07-31T07:16:42;99228.60;;;26.32
70050;BMP180;57391;51.306;22.680;2023-07-31T07:19:09;99224.00;;;26.86
70050;BMP180;57391;51.306;22.680;2023-07-31T07:21:36;99229.40;;;27.30
70050;BMP180;57391;51.306;22.680;2023-07-31T07:24:03;99228.60;;;27.66
70050;BMP180;57391;51.306;22.680;2023-07-31T07:26:30;99233.00;;;28.06
70050;BMP180;57391;51.306;22.680;2023-07-31T07:28:57;99233.40;;;28.10
70050;BMP180;57391;51.306;22.680;2023-07-31T07:31:24;99239.60;;;28.10
70050;BMP180;57391;51.306;22.680;2023-07-31T07:33:51;99235.60;;;27.90
70050;BMP180;57391;51.306;22.680;2023-07-31T07:36:18;99236.40;;;28.12
70050;BMP180;57391;51.306;22.680;2023-07-31T07:38:45;99238.00;;;28.40
70050;BMP180;57391;51.306;22.680;2023-07-31T07:41:12;99235.80;;;28.54
70050;BMP180;57391;51.306;22.680;2023-07-31T07:43:39;99233.40;;;28.74
70050;BMP180;57391;51.306;22.680;2023-07-31T07:46:06;99236.00;;;28.90
70050;BMP180;57391;51.306;22.680;2023-07-31T07:48:33;99236.80;;;28.84
70050;BMP180;57391;51.306;22.680;2023-07-31T07:50:59;99240.00;;;28.80
70050;BMP180;57391;51.306;22.680;2023-07-31T07:53:26;99241.80;;;28.74
70050;BMP180;57391;51.306;22.680;2023-07-31T07:55:53;99248.00;;;28.70
70050;BMP180;57391;51.306;22.680;2023-07-31T07:58:20;99247.00;;;28.62
70050;BMP180;57391;51.306;22.680;2023-07-31T08:00:51;99248.20;;;28.80
70050;BMP180;57391;51.306;22.680;2023-07-31T08:03:18;99241.60;;;28.90
70050;BMP180;57391;51.306;22.680;2023-07-31T08:05:46;99245.60;;;29.10
70050;BMP180;57391;51.306;22.680;2023-07-31T08:08:15;99243.60;;;29.26
70050;BMP180;57391;51.306;22.680;2023-07-31T08:10:45;99242.40;;;29.50
70050;BMP180;57391;51.306;22.680;2023-07-31T08:13:12;99241.20;;;29.72
70050;BMP180;57391;51.306;22.680;2023-07-31T08:15:41;99246.00;;;29.92
70050;BMP180;57391;51.306;22.680;2023-07-31T08:18:10;99244.60;;;29.96
70050;BMP180;57391;51.306;22.680;2023-07-31T08:20:38;99251.00;;;30.08
70050;BMP180;57391;51.306;22.680;2023-07-31T08:23:05;99249.00;;;30.10
70050;BMP180;57391;51.306;22.680;2023-07-31T08:25:35;99251.40;;;30.02
70050;BMP180;57391;51.306;22.680;2023-07-31T08:28:06;99250.00;;;30.20
70050;BMP180;57391;51.306;22.680;2023-07-31T08:30:33;99247.40;;;30.20
70050;BMP180;57391;51.306;22.680;2023-07-31T08:33:00;99244.00;;;30.20
70050;BMP180;57391;51.306;22.680;2023-07-31T08:35:27;99250.80;;;30.30
70050;BMP180;57391;51.306;22.680;2023-07-31T08:37:57;99257.00;;;30.10
70050;BMP180;57391;51.306;22.680;2023-07-31T08:40:24;99260.00;;;30.10
70050;BMP180;57391;51.306;22.680;2023-07-31T08:42:54;99257.80;;;30.10
70050;BMP180;57391;51.306;22.680;2023-07-31T08:45:23;99256.40;;;30.20
70050;BMP180;57391;51.306;22.680;2023-07-31T08:47:52;99262.40;;;30.00
70050;BMP180;57391;51.306;22.680;2023-07-31T08:50:20;99259.00;;;30.02
70050;BMP180;57391;51.306;22.680;2023-07-31T08:52:50;99257.80;;;30.00
70050;BMP180;57391;51.306;22.680;2023-07-31T08:55:18;99260.20;;;30.00
70050;BMP180;57391;51.306;22.680;2023-07-31T08:57:52;99263.00;;;30.00
70050;BMP180;57391;51.306;22.680;2023-07-31T09:00:23;99261.60;;;29.90
70050;BMP180;57391;51.306;22.680;2023-07-31T09:03:02;99271.40;;;29.80
70050;BMP180;57391;51.306;22.680;2023-07-31T09:05:31;99270.20;;;29.80
70050;BMP180;57391;51.306;22.680;2023-07-31T09:08:00;99273.20;;;29.80
70050;BMP180;57391;51.306;22.680;2023-07-31T09:10:28;99270.60;;;29.76
70050;BMP180;57391;51.306;22.680;2023-07-31T09:12:56;99265.00;;;29.70
70050;BMP180;57391;51.306;22.680;2023-07-31T09:15:36;99266.20;;;29.70
70050;BMP180;57391;51.306;22.680;2023-07-31T09:18:11;99269.00;;;29.78
70050;BMP180;57391;51.306;22.680;2023-07-31T09:20:38;99265.60;;;29.80
70050;BMP180;57391;51.306;22.680;2023-07-31T09:23:12;99259.40;;;29.80
70050;BMP180;57391;51.306;22.680;2023-07-31T09:25:43;99263.40;;;29.80
70050;BMP180;57391;51.306;22.680;2023-07-31T09:28:11;99264.80;;;29.80
70050;BMP180;57391;51.306;22.680;2023-07-31T09:30:49;99259.40;;;29.90
70050;BMP180;57391;51.306;22.680;2023-07-31T09:44:54;99275.00;;;29.74
70050;BMP180;57391;51.306;22.680;2023-07-31T09:47:33;99279.20;;;29.70
70050;BMP180;57391;51.306;22.680;2023-07-31T09:49:59;99284.60;;;29.40
70050;BMP180;57391;51.306;22.680;2023-07-31T09:52:26;99281.40;;;29.10
70050;BMP180;57391;51.306;22.680;2023-07-31T09:54:54;99280.00;;;28.76
70050;BMP180;57391;51.306;22.680;2023-07-31T09:57:50;99278.40;;;28.40
70050;BMP180;57391;51.306;22.680;2023-07-31T10:00:18;99274.60;;;28.20
70050;BMP180;57391;51.306;22.680;2023-07-31T10:05:30;99271.40;;;27.82
70050;BMP180;57391;51.306;22.680;2023-07-31T10:08:51;99272.60;;;27.60
70050;BMP180;57391;51.306;22.680;2023-07-31T10:11:41;99273.20;;;27.60
70050;BMP180;57391;51.306;22.680;2023-07-31T10:14:20;99274.00;;;27.70
70050;BMP180;57391;51.306;22.680;2023-07-31T10:17:52;99272.60;;;27.90
70050;BMP180;57391;51.306;22.680;2023-07-31T10:24:08;99271.40;;;28.00
70050;BMP180;57391;51.306;22.680;2023-07-31T10:26:38;99272.00;;;28.10
70050;BMP180;57391;51.306;22.680;2023-07-31T10:29:19;99276.40;;;28.16
70050;BMP180;57391;51.306;22.680;2023-07-31T10:31:57;99271.40;;;28.10
70050;BMP180;57391;51.306;22.680;2023-07-31T10:34:26;99270.20;;;28.00
70050;BMP180;57391;51.306;22.680;2023-07-31T10:37:29;99270.00;;;28.02
70050;BMP180;57391;51.306;22.680;2023-07-31T10:42:53;99267.40;;;28.10
70050;BMP180;57391;51.306;22.680;2023-07-31T10:45:42;99265.00;;;28.10
70050;BMP180;57391;51.306;22.680;2023-07-31T10:48:13;99262.60;;;28.10
70050;BMP180;57391;51.306;22.680;2023-07-31T10:50:55;99263.60;;;28.10
70050;BMP180;57391;51.306;22.680;2023-07-31T10:53:28;99259.60;;;28.20
70050;BMP180;57391;51.306;22.680;2023-07-31T10:56:03;99248.40;;;28.20
70050;BMP180;57391;51.306;22.680;2023-07-31T10:58:32;99247.20;;;28.28
70050;BMP180;57391;51.306;22.680;2023-07-31T11:01:04;99240.80;;;28.30
70050;BMP180;57391;51.306;22.680;2023-07-31T11:06:09;99244.00;;;28.40
70050;BMP180;57391;51.306;22.680;2023-07-31T11:11:16;99243.20;;;28.40
70050;BMP180;57391;51.306;22.680;2023-07-31T11:13:49;99244.40;;;28.50
70050;BMP180;57391;51.306;22.680;2023-07-31T11:16:20;99238.20;;;28.60
70050;BMP180;57391;51.306;22.680;2023-07-31T11:18:48;99238.40;;;28.60
70050;BMP180;57391;51.306;22.680;2023-07-31T11:21:19;99241.80;;;28.64
70050;BMP180;57391;51.306;22.680;2023-07-31T11:23:49;99241.00;;;28.70
70050;BMP180;57391;51.306;22.680;2023-07-31T11:26:17;99240.40;;;28.60
70050;BMP180;57391;51.306;22.680;2023-07-31T11:28:47;99238.20;;;28.50
70050;BMP180;57391;51.306;22.680;2023-07-31T11:31:15;99230.80;;;28.50
70050;BMP180;57391;51.306;22.680;2023-07-31T11:33:42;99231.20;;;28.50
70050;BMP180;57391;51.306;22.680;2023-07-31T11:36:20;99230.40;;;28.50
70050;BMP180;57391;51.306;22.680;2023-07-31T11:38:47;99224.40;;;28.50
70050;BMP180;57391;51.306;22.680;2023-07-31T11:41:16;99223.20;;;28.60
70050;BMP180;57391;51.306;22.680;2023-07-31T11:43:43;99227.00;;;28.60
70050;BMP180;57391;51.306;22.680;2023-07-31T11:46:10;99220.40;;;28.60
70050;BMP180;57391;51.306;22.680;2023-07-31T11:48:40;99221.20;;;28.60
70050;BMP180;57391;51.306;22.680;2023-07-31T11:51:15;99219.40;;;28.70
70050;BMP180;57391;51.306;22.680;2023-07-31T11:53:53;99219.20;;;28.70
70050;BMP180;57391;51.306;22.680;2023-07-31T11:56:25;99216.00;;;28.60
70050;BMP180;57391;51.306;22.680;2023-07-31T11:59:00;99210.60;;;28.40
70050;BMP180;57391;51.306;22.680;2023-07-31T12:03:42;99211.00;;;28.24
70050;BMP180;57391;51.306;22.680;2023-07-31T12:06:12;99205.80;;;28.30
70050;BMP180;57391;51.306;22.680;2023-07-31T12:08:39;99200.40;;;28.30
70050;BMP180;57391;51.306;22.680;2023-07-31T12:11:09;99204.80;;;28.36
70050;BMP180;57391;51.306;22.680;2023-07-31T12:13:43;99202.20;;;28.40
70050;BMP180;57391;51.306;22.680;2023-07-31T12:16:10;99202.40;;;28.40
70050;BMP180;57391;51.306;22.680;2023-07-31T12:18:50;99201.60;;;28.40
70050;BMP180;57391;51.306;22.680;2023-07-31T12:21:17;99198.60;;;28.30
70050;BMP180;57391;51.306;22.680;2023-07-31T12:23:51;99198.80;;;28.20
70050;BMP180;57391;51.306;22.680;2023-07-31T12:26:24;99195.80;;;28.10
70050;BMP180;57391;51.306;22.680;2023-07-31T12:29:15;99197.80;;;28.10
70050;BMP180;57391;51.306;22.680;2023-07-31T12:31:52;99196.80;;;27.98
70050;BMP180;57391;51.306;22.680;2023-07-31T12:34:48;99192.80;;;27.80
70050;BMP180;57391;51.306;22.680;2023-07-31T12:37:21;99195.20;;;27.80
70050;BMP180;57391;51.306;22.680;2023-07-31T12:39:56;99195.80;;;27.70
70050;BMP180;57391;51.306;22.680;2023-07-31T12:43:10;99198.40;;;27.60
70050;BMP180;57391;51.306;22.680;2023-07-31T12:45:44;99199.40;;;27.60
70050;BMP180;57391;51.306;22.680;2023-07-31T12:48:23;99197.80;;;27.60
70050;BMP180;57391;51.306;22.680;2023-07-31T12:50:54;99198.80;;;27.60
70050;BMP180;57391;51.306;22.680;2023-07-31T12:53:21;99199.00;;;27.64
70050;BMP180;57391;51.306;22.680;2023-07-31T12:55:51;99200.60;;;27.70
70050;BMP180;57391;51.306;22.680;2023-07-31T12:58:28;99205.00;;;27.80
70050;BMP180;57391;51.306;22.680;2023-07-31T13:00:55;99203.00;;;27.80
70050;BMP180;57391;51.306;22.680;2023-07-31T13:03:22;99205.80;;;27.80
70050;BMP180;57391;51.306;22.680;2023-07-31T13:05:50;99205.40;;;27.70
70050;BMP180;57391;51.306;22.680;2023-07-31T13:08:17;99201.60;;;27.58
70050;BMP180;57391;51.306;22.680;2023-07-31T13:10:44;99197.80;;;27.50
70050;BMP180;57391;51.306;22.680;2023-07-31T13:13:14;99198.20;;;27.40
70050;BMP180;57391;51.306;22.680;2023-07-31T13:15:44;99193.40;;;27.30
70050;BMP180;57391;51.306;22.680;2023-07-31T13:18:12;99191.80;;;27.30
70050;BMP180;57391;51.306;22.680;2023-07-31T13:20:39;99186.80;;;27.30
70050;BMP180;57391;51.306;22.680;2023-07-31T13:23:05;99184.20;;;27.20
70050;BMP180;57391;51.306;22.680;2023-07-31T13:25:37;99181.80;;;27.10
70050;BMP180;57391;51.306;22.680;2023-07-31T13:28:05;99183.20;;;27.04
70050;BMP180;57391;51.306;22.680;2023-07-31T13:30:35;99179.60;;;27.00
70050;BMP180;57391;51.306;22.680;2023-07-31T13:33:07;99173.80;;;27.00
70050;BMP180;57391;51.306;22.680;2023-07-31T13:35:34;99176.20;;;27.08
70050;BMP180;57391;51.306;22.680;2023-07-31T13:38:34;99179.40;;;27.00
70050;BMP180;57391;51.306;22.680;2023-07-31T13:41:01;99172.60;;;26.90
70050;BMP180;57391;51.306;22.680;2023-07-31T13:43:28;99175.00;;;26.90
70050;BMP180;57391;51.306;22.680;2023-07-31T13:45:55;99172.20;;;26.88
70050;BMP180;57391;51.306;22.680;2023-07-31T13:48:22;99166.60;;;26.92
70050;BMP180;57391;51.306;22.680;2023-07-31T13:50:49;99174.00;;;27.00
70050;BMP180;57391;51.306;22.680;2023-07-31T13:53:16;99173.80;;;27.00
70050;BMP180;57391;51.306;22.680;2023-07-31T13:55:43;99175.60;;;27.10
70050;BMP180;57391;51.306;22.680;2023-07-31T13:58:12;99182.60;;;27.10
70050;BMP180;57391;51.306;22.680;2023-07-31T14:00:43;99173.20;;;27.02
70050;BMP180;57391;51.306;22.680;2023-07-31T14:03:10;99178.40;;;27.08
70050;BMP180;57391;51.306;22.680;2023-07-31T14:05:37;99176.80;;;27.10
70050;BMP180;57391;51.306;22.680;2023-07-31T14:08:04;99178.40;;;27.10
70050;BMP180;57391;51.306;22.680;2023-07-31T14:10:31;99174.80;;;27.12
70050;BMP180;57391;51.306;22.680;2023-07-31T14:13:02;99180.20;;;27.10
70050;BMP180;57391;51.306;22.680;2023-07-31T14:17:28;99178.40;;;26.92
70050;BMP180;57391;51.306;22.680;2023-07-31T14:19:55;99178.00;;;26.90
70050;BMP180;57391;51.306;22.680;2023-07-31T14:22:31;99180.20;;;26.90
70050;BMP180;57391;51.306;22.680;2023-07-31T14:25:01;99179.20;;;26.90
70050;BMP180;57391;51.306;22.680;2023-07-31T14:27:28;99177.40;;;26.90
70050;BMP180;57391;51.306;22.680;2023-07-31T14:29:55;99182.00;;;26.90
70050;BMP180;57391;51.306;22.680;2023-07-31T14:32:22;99175.20;;;26.90
70050;BMP180;57391;51.306;22.680;2023-07-31T14:34:52;99176.80;;;26.80
70050;BMP180;57391;51.306;22.680;2023-07-31T14:37:19;99175.20;;;26.70
70050;BMP180;57391;51.306;22.680;2023-07-31T14:39:46;99172.20;;;26.70
70050;BMP180;57391;51.306;22.680;2023-07-31T14:42:12;99178.00;;;26.60
70050;BMP180;57391;51.306;22.680;2023-07-31T14:44:39;99174.80;;;26.50
70050;BMP180;57391;51.306;22.680;2023-07-31T14:47:07;99172.00;;;26.50
70050;BMP180;57391;51.306;22.680;2023-07-31T14:49:33;99176.20;;;26.42
70050;BMP180;57391;51.306;22.680;2023-07-31T14:52:00;99175.00;;;26.40
70050;BMP180;57391;51.306;22.680;2023-07-31T14:54:27;99174.80;;;26.30
70050;BMP180;57391;51.306;22.680;2023-07-31T14:56:54;99172.60;;;26.30
70050;BMP180;57391;51.306;22.680;2023-07-31T14:59:21;99175.60;;;26.30
70050;BMP180;57391;51.306;22.680;2023-07-31T15:01:48;99171.80;;;26.30
70050;BMP180;57391;51.306;22.680;2023-07-31T15:04:15;99170.00;;;26.30
70050;BMP180;57391;51.306;22.680;2023-07-31T15:06:42;99169.00;;;26.30